Time;durP1;ratioP1;P1;durP2;ratioP2;P2;SDS_P1;SDS_P2;PMS_P1;PMS_P2;Temp;Humidity;BMP_temperature;BMP_pressure;BME280_temperature;BME280_humidity;BME280_pressure;Samples;Min_cycle;Max_cycle;Signal;HPM_P1;HPM_P2
2023/05/06 00:00:18;;;;;;;2.72;1.48;;;;;;;;;;5137365;27;20106;-86
2023/05/06 00:02:44;;;;;;;2.35;1.63;;;;;;;;;;5136898;27;20423;-86
2023/05/06 00:05:10;;;;;;;1.98;1.60;;;;;;;;;;5118680;27;20043;-87
2023/05/06 00:07:35;;;;;;;1.80;1.65;;;;;;;;;;5137086;27;20035;-86
2023/05/06 00:10:00;;;;;;;1.50;1.40;;;;;;;;;;5102082;27;20055;-85
2023/05/06 00:12:26;;;;;;;1.60;1.50;;;;;;;;;;5138840;27;20027;-86
2023/05/06 00:14:51;;;;;;;1.60;1.50;;;;;;;;;;5102170;27;20034;-86
2023/05/06 00:17:17;;;;;;;4.38;1.70;;;;;;;;;;5104665;27;20027;-85
2023/05/06 00:19:43;;;;;;;1.67;1.50;;;;;;;;;;5120536;27;20030;-84
2023/05/06 00:22:09;;;;;;;2.63;1.50;;;;;;;;;;5137262;27;20038;-84
2023/05/06 00:24:34;;;;;;;1.50;1.40;;;;;;;;;;5101198;27;20034;-86
2023/05/06 00:27:00;;;;;;;2.75;1.50;;;;;;;;;;5118216;27;20106;-86
2023/05/06 00:29:26;;;;;;;1.70;1.60;;;;;;;;;;5118899;27;20034;-86
2023/05/06 00:31:51;;;;;;;1.60;1.50;;;;;;;;;;5101044;27;20398;-86
2023/05/06 00:34:16;;;;;;;2.20;1.52;;;;;;;;;;5101828;27;20041;-87
2023/05/06 00:36:42;;;;;;;2.65;1.30;;;;;;;;;;5101071;27;20027;-87
2023/05/06 00:39:08;;;;;;;2.00;1.55;;;;;;;;;;5084778;27;20422;-86
2023/05/06 00:41:34;;;;;;;2.30;1.65;;;;;;;;;;5136842;27;20147;-86
2023/05/06 00:43:59;;;;;;;1.65;1.55;;;;;;;;;;5101064;27;20023;-86
2023/05/06 00:46:25;;;;;;;1.63;1.40;;;;;;;;;;5117965;27;20030;-86
2023/05/06 00:48:51;;;;;;;1.80;1.60;;;;;;;;;;5100787;27;20059;-86
2023/05/06 00:51:16;;;;;;;1.40;1.30;;;;;;;;;;5100967;27;20088;-86
2023/05/06 00:53:45;;;;;;;2.00;1.55;;;;;;;;;;5100474;27;20023;-87
2023/05/06 00:56:11;;;;;;;1.60;1.50;;;;;;;;;;5101010;27;20504;-87
2023/05/06 00:58:37;;;;;;;1.85;1.55;;;;;;;;;;5117758;27;20059;-86
2023/05/06 01:01:02;;;;;;;2.38;1.30;;;;;;;;;;5100453;27;20023;-86
2023/05/06 01:03:28;;;;;;;3.50;1.52;;;;;;;;;;5100176;27;20047;-86
2023/05/06 01:06:12;;;;;;;1.55;1.45;;;;;;;;;;5100625;27;20043;-86
2023/05/06 01:08:51;;;;;;;1.50;1.40;;;;;;;;;;5135805;27;20054;-86
2023/05/06 01:11:40;;;;;;;1.60;1.50;;;;;;;;;;5100551;27;20042;-86
2023/05/06 01:14:20;;;;;;;1.60;1.50;;;;;;;;;;5100220;27;20493;-86
2023/05/06 01:16:47;;;;;;;1.90;1.70;;;;;;;;;;5117567;27;20023;-85
2023/05/06 01:19:22;;;;;;;2.25;1.50;;;;;;;;;;5100149;27;20027;-85
2023/05/06 01:21:50;;;;;;;1.88;1.50;;;;;;;;;;5117177;27;20027;-86
2023/05/06 01:24:15;;;;;;;1.52;1.42;;;;;;;;;;5117394;27;20031;-86
2023/05/06 01:26:42;;;;;;;2.45;1.42;;;;;;;;;;5100013;27;20027;-85
2023/05/06 01:29:08;;;;;;;2.72;1.45;;;;;;;;;;5117568;27;20441;-84
2023/05/06 01:31:47;;;;;;;1.73;1.50;;;;;;;;;;5117139;27;20110;-85
2023/05/06 01:34:15;;;;;;;1.42;1.33;;;;;;;;;;5117145;27;20027;-85
2023/05/06 01:36:45;;;;;;;1.67;1.58;;;;;;;;;;5135528;27;20027;-85
2023/05/06 01:39:17;;;;;;;1.80;1.60;;;;;;;;;;5099822;27;20366;-85
2023/05/06 01:41:43;;;;;;;1.52;1.42;;;;;;;;;;5099574;27;20034;-85
2023/05/06 01:44:10;;;;;;;2.10;1.63;;;;;;;;;;5117027;27;20035;-85
2023/05/06 01:46:35;;;;;;;1.70;1.60;;;;;;;;;;5116669;27;20106;-85
2023/05/06 01:49:04;;;;;;;4.03;2.30;;;;;;;;;;5116795;27;20077;-85
2023/05/06 01:51:32;;;;;;;1.90;1.75;;;;;;;;;;5099801;27;20160;-85
2023/05/06 01:53:58;;;;;;;1.52;1.42;;;;;;;;;;5099351;27;20034;-86
2023/05/06 01:56:23;;;;;;;1.83;1.63;;;;;;;;;;5117187;27;20039;-84
2023/05/06 01:58:49;;;;;;;1.70;1.60;;;;;;;;;;5117424;27;20027;-84
2023/05/06 02:01:14;;;;;;;2.28;1.55;;;;;;;;;;5108306;27;20030;-85
2023/05/06 02:03:40;;;;;;;2.17;1.58;;;;;;;;;;5125249;27;20054;-85
2023/05/06 02:06:06;;;;;;;1.52;1.42;;;;;;;;;;5121983;27;20039;-85
2023/05/06 02:08:31;;;;;;;2.08;1.55;;;;;;;;;;5121990;27;20111;-84
2023/05/06 02:10:56;;;;;;;1.42;1.33;;;;;;;;;;5118341;27;20101;-84
2023/05/06 02:13:22;;;;;;;1.80;1.40;;;;;;;;;;5117273;27;20035;-84
2023/05/06 02:15:52;;;;;;;2.15;1.77;;;;;;;;;;5116743;28;20035;-84
2023/05/06 02:18:17;;;;;;;1.60;1.50;;;;;;;;;;5117101;27;20026;-84
2023/05/06 02:20:43;;;;;;;1.70;1.60;;;;;;;;;;5117284;27;20031;-84
2023/05/06 02:23:08;;;;;;;1.50;1.40;;;;;;;;;;5100489;27;20080;-85
2023/05/06 02:25:34;;;;;;;3.90;1.50;;;;;;;;;;5116834;27;20053;-84
2023/05/06 02:27:59;;;;;;;3.00;1.60;;;;;;;;;;5116565;28;20027;-84
2023/05/06 02:30:25;;;;;;;1.63;1.50;;;;;;;;;;5099102;28;20031;-84
2023/05/06 02:32:50;;;;;;;1.55;1.45;;;;;;;;;;5116335;27;20031;-84
2023/05/06 02:35:15;;;;;;;1.83;1.70;;;;;;;;;;5099077;28;20068;-84
2023/05/06 02:37:41;;;;;;;1.98;1.70;;;;;;;;;;5098966;28;20035;-84
2023/05/06 02:40:07;;;;;;;1.92;1.58;;;;;;;;;;5134672;27;20023;-84
2023/05/06 02:42:33;;;;;;;2.15;1.50;;;;;;;;;;5116006;28;20027;-85
2023/05/06 02:44:59;;;;;;;1.50;1.40;;;;;;;;;;5115789;28;20477;-84
2023/05/06 02:47:24;;;;;;;1.67;1.58;;;;;;;;;;5115852;28;20034;-84
2023/05/06 02:49:50;;;;;;;1.55;1.45;;;;;;;;;;5116031;28;20031;-85
2023/05/06 02:52:15;;;;;;;1.70;1.60;;;;;;;;;;5099125;28;20031;-84
2023/05/06 02:54:41;;;;;;;2.83;1.58;;;;;;;;;;5134699;28;20031;-84
2023/05/06 02:57:06;;;;;;;2.42;1.60;;;;;;;;;;5134580;28;20027;-85
2023/05/06 02:59:31;;;;;;;1.75;1.65;;;;;;;;;;5098902;28;20118;-86
2023/05/06 03:01:57;;;;;;;1.75;1.50;;;;;;;;;;5099145;28;20473;-86
2023/05/06 03:04:22;;;;;;;1.58;1.48;;;;;;;;;;5098616;28;20067;-86
2023/05/06 03:06:48;;;;;;;1.67;1.58;;;;;;;;;;5117255;27;20131;-86
2023/05/06 03:09:14;;;;;;;2.65;1.60;;;;;;;;;;5085979;27;20031;-85
2023/05/06 03:11:39;;;;;;;2.28;1.80;;;;;;;;;;5138331;27;20397;-86
2023/05/06 03:14:05;;;;;;;1.95;1.70;;;;;;;;;;5138306;27;20031;-86
2023/05/06 03:16:30;;;;;;;1.98;1.85;;;;;;;;;;5103143;27;20031;-86
2023/05/06 03:18:56;;;;;;;2.60;1.80;;;;;;;;;;5120479;27;20054;-86
2023/05/06 03:21:21;;;;;;;2.67;1.75;;;;;;;;;;5120074;27;20031;-84
2023/05/06 03:23:46;;;;;;;2.97;1.50;;;;;;;;;;5120402;27;20027;-84
2023/05/06 03:26:12;;;;;;;2.35;1.90;;;;;;;;;;5102873;27;20371;-85
2023/05/06 03:28:37;;;;;;;1.90;1.80;;;;;;;;;;5119735;27;20027;-84
2023/05/06 03:31:02;;;;;;;1.80;1.70;;;;;;;;;;5119577;27;20031;-84
2023/05/06 03:33:28;;;;;;;2.08;1.85;;;;;;;;;;5102420;27;20371;-85
2023/05/06 03:35:53;;;;;;;2.13;1.35;;;;;;;;;;5120030;27;20027;-86
2023/05/06 03:38:19;;;;;;;2.03;1.58;;;;;;;;;;5102241;27;20038;-86
2023/05/06 03:40:44;;;;;;;2.33;1.83;;;;;;;;;;5102275;27;20031;-86
2023/05/06 03:43:10;;;;;;;1.70;1.60;;;;;;;;;;5119749;27;20027;-84
2023/05/06 03:45:35;;;;;;;1.77;1.63;;;;;;;;;;5085282;27;20034;-85
2023/05/06 03:48:00;;;;;;;2.55;1.77;;;;;;;;;;5102305;27;20027;-85
2023/05/06 03:50:26;;;;;;;3.40;1.73;;;;;;;;;;5118978;27;20089;-84
2023/05/06 03:52:51;;;;;;;1.92;1.75;;;;;;;;;;5119190;27;20477;-86
2023/05/06 03:55:17;;;;;;;1.75;1.48;;;;;;;;;;5137702;27;20023;-86
2023/05/06 03:57:42;;;;;;;1.80;1.63;;;;;;;;;;5101890;27;20473;-83
2023/05/06 04:00:09;;;;;;;1.98;1.70;;;;;;;;;;5119009;27;20035;-87
2023/05/06 04:02:34;;;;;;;2.80;1.63;;;;;;;;;;5137233;27;20027;-87
2023/05/06 04:05:00;;;;;;;2.10;1.90;;;;;;;;;;5118848;27;20406;-88
2023/05/06 04:07:25;;;;;;;2.42;2.00;;;;;;;;;;5118943;27;20500;-88
2023/05/06 04:09:51;;;;;;;1.77;1.60;;;;;;;;;;5102174;27;20445;-88
2023/05/06 04:12:16;;;;;;;2.65;1.70;;;;;;;;;;5137441;27;20127;-88
2023/05/06 04:14:42;;;;;;;2.13;1.52;;;;;;;;;;5137085;27;20367;-89
2023/05/06 04:17:07;;;;;;;1.85;1.50;;;;;;;;;;5136455;27;20029;-88
2023/05/06 04:19:32;;;;;;;1.80;1.70;;;;;;;;;;5084812;27;20030;-87
2023/05/06 04:21:58;;;;;;;1.90;1.75;;;;;;;;;;5119184;27;20019;-87
2023/05/06 04:24:23;;;;;;;2.45;1.70;;;;;;;;;;5146743;27;20038;-87
2023/05/06 04:26:48;;;;;;;3.58;1.60;;;;;;;;;;5137352;27;20064;-87
2023/05/06 04:29:14;;;;;;;1.85;1.70;;;;;;;;;;5137224;27;20027;-86
2023/05/06 04:31:39;;;;;;;1.80;1.65;;;;;;;;;;5137273;27;20469;-88
2023/05/06 04:34:05;;;;;;;2.10;1.70;;;;;;;;;;5136715;27;20038;-87
2023/05/06 04:36:30;;;;;;;1.95;1.60;;;;;;;;;;5084534;27;20019;-87
2023/05/06 04:38:56;;;;;;;1.73;1.63;;;;;;;;;;5101306;27;20031;-87
2023/05/06 04:41:22;;;;;;;2.10;1.90;;;;;;;;;;5118581;27;20419;-87
2023/05/06 04:43:47;;;;;;;1.83;1.70;;;;;;;;;;5118961;27;20019;-88
2023/05/06 04:46:13;;;;;;;2.22;1.80;;;;;;;;;;5101395;27;20027;-88
2023/05/06 04:48:39;;;;;;;1.70;1.60;;;;;;;;;;5118156;27;20457;-87
2023/05/06 04:51:04;;;;;;;1.80;1.70;;;;;;;;;;5118397;27;20473;-87
2023/05/06 04:53:30;;;;;;;1.70;1.60;;;;;;;;;;5136452;27;20031;-87
2023/05/06 04:55:56;;;;;;;2.67;1.83;;;;;;;;;;5120276;27;20102;-87
2023/05/06 04:58:21;;;;;;;1.95;1.70;;;;;;;;;;5101053;27;20495;-88
2023/05/06 05:00:47;;;;;;;2.97;1.85;;;;;;;;;;5136822;27;20031;-88
2023/05/06 05:03:12;;;;;;;2.08;1.63;;;;;;;;;;5118914;27;20027;-89
2023/05/06 05:05:37;;;;;;;4.55;1.98;;;;;;;;;;5137670;27;20493;-86
2023/05/06 05:08:03;;;;;;;2.15;1.55;;;;;;;;;;5101087;27;20038;-87
2023/05/06 05:10:28;;;;;;;2.35;1.67;;;;;;;;;;5102350;27;20118;-87
2023/05/06 05:12:54;;;;;;;1.88;1.60;;;;;;;;;;5138294;27;20118;-87
2023/05/06 05:15:20;;;;;;;1.73;1.63;;;;;;;;;;5135716;27;20027;-87
2023/05/06 05:17:45;;;;;;;2.83;1.90;;;;;;;;;;5136275;27;20076;-88
2023/05/06 05:20:11;;;;;;;2.00;1.73;;;;;;;;;;5100538;27;20054;-86
2023/05/06 05:22:36;;;;;;;1.85;1.70;;;;;;;;;;5117807;27;20381;-87
2023/05/06 05:25:02;;;;;;;2.17;1.63;;;;;;;;;;5117435;27;20019;-88
2023/05/06 05:27:28;;;;;;;1.60;1.50;;;;;;;;;;5117678;27;20027;-87
2023/05/06 05:29:53;;;;;;;2.40;1.80;;;;;;;;;;5135212;27;20106;-88
2023/05/06 05:32:18;;;;;;;1.67;1.58;;;;;;;;;;5117380;27;20027;-84
2023/05/06 05:34:44;;;;;;;1.75;1.60;;;;;;;;;;5117054;27;20027;-84
2023/05/06 05:37:10;;;;;;;3.47;1.80;;;;;;;;;;5136358;27;20034;-84
2023/05/06 05:39:35;;;;;;;2.33;2.03;;;;;;;;;;5100890;27;20055;-87
2023/05/06 05:42:02;;;;;;;2.45;2.00;;;;;;;;;;5135650;27;20107;-82
2023/05/06 05:44:28;;;;;;;3.65;1.90;;;;;;;;;;5100374;27;20439;-85
2023/05/06 05:46:53;;;;;;;3.97;2.25;;;;;;;;;;5100140;27;20121;-88
2023/05/06 05:49:18;;;;;;;4.25;2.10;;;;;;;;;;5117217;27;20034;-85
2023/05/06 05:51:44;;;;;;;5.65;2.45;;;;;;;;;;5082901;27;20038;-85
2023/05/06 05:54:09;;;;;;;5.10;2.63;;;;;;;;;;5117193;27;20035;-86
2023/05/06 05:56:35;;;;;;;4.22;2.53;;;;;;;;;;5116822;27;20051;-86
2023/05/06 05:59:00;;;;;;;5.22;2.40;;;;;;;;;;5117106;27;20469;-85
2023/05/06 06:01:25;;;;;;;4.85;2.17;;;;;;;;;;5116981;27;20031;-84
2023/05/06 06:03:52;;;;;;;5.20;2.22;;;;;;;;;;5099851;27;20047;-87
2023/05/06 06:06:18;;;;;;;4.07;2.10;;;;;;;;;;5117095;27;20031;-85
2023/05/06 06:08:43;;;;;;;9.10;2.60;;;;;;;;;;5117958;27;20080;-85
2023/05/06 06:11:09;;;;;;;3.67;2.45;;;;;;;;;;5099970;27;20049;-86
2023/05/06 06:13:34;;;;;;;4.85;2.30;;;;;;;;;;5099360;27;20114;-85
2023/05/06 06:16:00;;;;;;;2.72;2.22;;;;;;;;;;5135061;27;20504;-85
2023/05/06 06:18:25;;;;;;;4.15;2.20;;;;;;;;;;5099613;27;20489;-83
2023/05/06 06:20:50;;;;;;;7.07;2.42;;;;;;;;;;5099502;27;20059;-83
2023/05/06 06:23:16;;;;;;;7.93;2.38;;;;;;;;;;5116920;27;20133;-84
2023/05/06 06:25:41;;;;;;;3.15;2.20;;;;;;;;;;5119077;27;20027;-83
2023/05/06 06:28:07;;;;;;;4.65;2.30;;;;;;;;;;5135684;27;20027;-85
2023/05/06 06:30:32;;;;;;;4.22;2.45;;;;;;;;;;5099128;27;20026;-85
2023/05/06 06:33:00;;;;;;;4.20;2.45;;;;;;;;;;5099157;27;20027;-85
2023/05/06 06:35:26;;;;;;;9.82;3.13;;;;;;;;;;5099926;27;20027;-85
2023/05/06 06:37:51;;;;;;;4.13;2.60;;;;;;;;;;5116423;28;20015;-85
2023/05/06 06:40:16;;;;;;;5.75;2.30;;;;;;;;;;5134426;27;20034;-86
2023/05/06 06:42:42;;;;;;;5.18;2.58;;;;;;;;;;5116119;28;20016;-84
2023/05/06 06:45:08;;;;;;;4.43;2.53;;;;;;;;;;5116358;28;20027;-85
2023/05/06 06:47:34;;;;;;;5.97;2.40;;;;;;;;;;5116530;28;20122;-85
2023/05/06 06:49:59;;;;;;;4.07;2.42;;;;;;;;;;5134483;28;20055;-84
2023/05/06 06:52:25;;;;;;;3.60;2.15;;;;;;;;;;5116028;28;20027;-85
2023/05/06 06:54:50;;;;;;;5.30;2.65;;;;;;;;;;5134351;28;20023;-85
2023/05/06 06:57:16;;;;;;;3.75;2.53;;;;;;;;;;5134602;28;20031;-84
2023/05/06 06:59:41;;;;;;;3.38;2.45;;;;;;;;;;5134375;28;20043;-84
2023/05/06 07:02:06;;;;;;;6.00;2.78;;;;;;;;;;5134404;28;20027;-85
2023/05/06 07:04:32;;;;;;;6.82;2.50;;;;;;;;;;5098880;28;20058;-85
2023/05/06 07:06:57;;;;;;;4.30;2.22;;;;;;;;;;5101039;28;20035;-85
2023/05/06 07:09:23;;;;;;;6.22;2.67;;;;;;;;;;5135937;28;20474;-85
2023/05/06 07:11:48;;;;;;;4.22;2.42;;;;;;;;;;5100069;28;20034;-85
2023/05/06 07:14:14;;;;;;;4.68;2.38;;;;;;;;;;5117761;28;20027;-85
2023/05/06 07:16:39;;;;;;;3.63;2.35;;;;;;;;;;5137340;28;20027;-86
2023/05/06 07:19:04;;;;;;;5.35;2.30;;;;;;;;;;5102193;28;20028;-84
2023/05/06 07:21:31;;;;;;;3.63;2.72;;;;;;;;;;5134366;28;20098;-85
2023/05/06 07:23:57;;;;;;;3.88;2.88;;;;;;;;;;5118052;28;20076;-83
2023/05/06 07:26:23;;;;;;;5.03;2.53;;;;;;;;;;5136602;28;20027;-82
2023/05/06 07:28:48;;;;;;;7.75;2.42;;;;;;;;;;5125059;28;20085;-83
2023/05/06 07:31:15;;;;;;;5.43;3.08;;;;;;;;;;5110461;28;20034;-81
2023/05/06 07:33:40;;;;;;;4.75;3.13;;;;;;;;;;5141930;28;20027;-82
2023/05/06 07:36:06;;;;;;;20.60;4.88;;;;;;;;;;5105344;28;20027;-82
2023/05/06 07:38:32;;;;;;;20.92;5.50;;;;;;;;;;5139923;28;20028;-88
2023/05/06 07:40:57;;;;;;;13.93;5.45;;;;;;;;;;5114726;28;20126;-83
2023/05/06 07:43:23;;;;;;;18.92;4.75;;;;;;;;;;5097336;28;20038;-82
2023/05/06 07:45:48;;;;;;;11.02;4.15;;;;;;;;;;5114306;28;20102;-79
2023/05/06 07:48:13;;;;;;;14.27;3.92;;;;;;;;;;5102195;28;20107;-85
2023/05/06 07:50:39;;;;;;;8.82;4.28;;;;;;;;;;5102719;28;20031;-79
2023/05/06 07:53:04;;;;;;;27.92;7.97;;;;;;;;;;5121837;27;20380;-80
2023/05/06 07:55:30;;;;;;;20.73;7.22;;;;;;;;;;5125552;27;20019;-81
2023/05/06 07:57:55;;;;;;;22.30;7.38;;;;;;;;;;5140793;27;20023;-80
2023/05/06 08:00:21;;;;;;;16.10;5.97;;;;;;;;;;5120380;27;20031;-80
2023/05/06 08:02:47;;;;;;;11.52;5.65;;;;;;;;;;5102255;27;20027;-79
2023/05/06 08:05:13;;;;;;;15.98;5.75;;;;;;;;;;5119270;27;20108;-79
2023/05/06 08:07:41;;;;;;;28.55;4.30;;;;;;;;;;5119116;27;20027;-78
2023/05/06 08:10:08;;;;;;;11.10;4.53;;;;;;;;;;5101887;27;20023;-78
2023/05/06 08:12:34;;;;;;;8.18;3.95;;;;;;;;;;5102285;27;20035;-77
2023/05/06 08:14:59;;;;;;;13.25;4.53;;;;;;;;;;5137189;27;20036;-78
2023/05/06 08:17:25;;;;;;;10.32;4.40;;;;;;;;;;5118586;27;20042;-79
2023/05/06 08:19:50;;;;;;;7.50;3.70;;;;;;;;;;5118866;27;20027;-78
2023/05/06 08:22:16;;;;;;;11.10;4.47;;;;;;;;;;5101552;27;20030;-77
2023/05/06 08:24:41;;;;;;;9.35;3.80;;;;;;;;;;5101433;27;20113;-78
2023/05/06 08:27:07;;;;;;;9.35;3.80;;;;;;;;;;5136724;27;20445;-78
2023/05/06 08:29:32;;;;;;;11.45;3.70;;;;;;;;;;5101543;27;20033;-80
2023/05/06 08:31:57;;;;;;;10.98;3.70;;;;;;;;;;5118431;27;20019;-79
2023/05/06 08:34:23;;;;;;;7.88;3.78;;;;;;;;;;5136719;27;20031;-79
2023/05/06 08:36:48;;;;;;;6.63;3.63;;;;;;;;;;5136877;27;20106;-79
2023/05/06 08:39:14;;;;;;;7.78;3.72;;;;;;;;;;5102045;27;20061;-80
2023/05/06 08:41:40;;;;;;;8.45;3.50;;;;;;;;;;5138061;27;20146;-80
2023/05/06 08:44:06;;;;;;;12.35;3.92;;;;;;;;;;5120783;27;20030;-78
2023/05/06 08:46:32;;;;;;;11.07;4.80;;;;;;;;;;5119981;27;20030;-77
2023/05/06 08:48:58;;;;;;;6.50;3.65;;;;;;;;;;5119634;27;20027;-77
2023/05/06 08:51:29;;;;;;;6.90;3.47;;;;;;;;;;5123128;27;20031;-78
2023/05/06 08:53:54;;;;;;;10.10;3.00;;;;;;;;;;5112488;27;20389;-78
2023/05/06 08:56:23;;;;;;;8.05;2.97;;;;;;;;;;5132870;27;20031;-78
2023/05/06 08:58:50;;;;;;;8.70;3.58;;;;;;;;;;5128300;27;20076;-78
2023/05/06 09:01:16;;;;;;;9.13;3.30;;;;;;;;;;5126470;27;20111;-78
2023/05/06 09:03:42;;;;;;;7.43;3.20;;;;;;;;;;5130711;27;20505;-78
2023/05/06 09:06:09;;;;;;;6.32;3.30;;;;;;;;;;5123707;27;20051;-79
2023/05/06 09:08:35;;;;;;;6.18;3.28;;;;;;;;;;5137148;27;20096;-79
2023/05/06 09:11:00;;;;;;;9.63;3.15;;;;;;;;;;5136603;27;20031;-79
2023/05/06 09:13:26;;;;;;;8.10;3.42;;;;;;;;;;5136016;27;20031;-79
2023/05/06 09:15:52;;;;;;;5.65;3.88;;;;;;;;;;5100752;27;20125;-79
2023/05/06 09:18:18;;;;;;;5.78;3.50;;;;;;;;;;5100248;27;20019;-80
2023/05/06 09:20:45;;;;;;;6.72;3.50;;;;;;;;;;5135807;27;20175;-78
2023/05/06 09:23:13;;;;;;;5.68;3.35;;;;;;;;;;5135792;27;20026;-78
2023/05/06 09:25:38;;;;;;;4.75;3.10;;;;;;;;;;5117470;27;20051;-78
2023/05/06 09:28:05;;;;;;;7.93;3.38;;;;;;;;;;5136309;27;20034;-78
2023/05/06 09:30:30;;;;;;;4.97;3.17;;;;;;;;;;5118044;27;20038;-78
2023/05/06 09:32:56;;;;;;;6.30;3.03;;;;;;;;;;5135753;27;20378;-79
2023/05/06 09:35:27;;;;;;;5.60;3.10;;;;;;;;;;5100639;27;20079;-80
2023/05/06 09:37:52;;;;;;;6.45;3.08;;;;;;;;;;5117442;27;20366;-80
2023/05/06 09:40:17;;;;;;;6.72;2.90;;;;;;;;;;5101001;27;20084;-80
2023/05/06 09:42:43;;;;;;;4.38;2.75;;;;;;;;;;5100376;27;20027;-79
2023/05/06 09:45:09;;;;;;;6.88;3.58;;;;;;;;;;5135955;27;20031;-82
2023/05/06 09:47:34;;;;;;;4.80;3.28;;;;;;;;;;5100468;27;20027;-79
2023/05/06 09:50:01;;;;;;;4.97;3.20;;;;;;;;;;5116672;27;20031;-82
2023/05/06 09:52:27;;;;;;;6.57;3.47;;;;;;;;;;5116911;27;20028;-80
2023/05/06 09:54:52;;;;;;;10.88;3.33;;;;;;;;;;5099792;27;20044;-80
2023/05/06 09:57:18;;;;;;;8.10;4.00;;;;;;;;;;5099986;27;20031;-80
2023/05/06 09:59:44;;;;;;;5.55;2.83;;;;;;;;;;5099597;27;20042;-80
2023/05/06 10:02:11;;;;;;;4.63;2.83;;;;;;;;;;5116740;27;20058;-80
2023/05/06 10:04:40;;;;;;;4.65;2.80;;;;;;;;;;5082931;27;20058;-80
2023/05/06 10:07:12;;;;;;;5.72;2.67;;;;;;;;;;5099682;27;20031;-79
2023/05/06 10:09:39;;;;;;;4.53;2.42;;;;;;;;;;5135285;27;20027;-80
2023/05/06 10:12:06;;;;;;;3.95;2.45;;;;;;;;;;5099486;27;20031;-79
2023/05/06 10:14:32;;;;;;;9.02;2.70;;;;;;;;;;5082663;27;20076;-79
2023/05/06 10:16:58;;;;;;;5.35;2.80;;;;;;;;;;5116191;27;20035;-79
2023/05/06 10:19:24;;;;;;;4.50;3.10;;;;;;;;;;5099792;27;20027;-79
2023/05/06 10:21:58;;;;;;;4.43;2.50;;;;;;;;;;5082758;27;20149;-77
2023/05/06 10:24:28;;;;;;;6.30;2.50;;;;;;;;;;5116369;27;20030;-79
2023/05/06 10:26:55;;;;;;;4.47;3.00;;;;;;;;;;5099174;27;20122;-78
2023/05/06 10:29:23;;;;;;;4.35;3.03;;;;;;;;;;5134752;27;20439;-82
2023/05/06 10:31:53;;;;;;;7.25;3.90;;;;;;;;;;5134703;27;20030;-80
2023/05/06 10:34:20;;;;;;;8.98;3.92;;;;;;;;;;5100281;27;20034;-80
2023/05/06 10:36:47;;;;;;;7.75;4.07;;;;;;;;;;5116432;27;20106;-82
2023/05/06 10:39:13;;;;;;;9.65;4.32;;;;;;;;;;5116183;28;20027;-79
2023/05/06 10:41:38;;;;;;;5.78;3.78;;;;;;;;;;5116036;27;20600;-79
2023/05/06 10:44:04;;;;;;;8.60;4.05;;;;;;;;;;5116171;28;20031;-80
2023/05/06 10:46:30;;;;;;;7.90;3.85;;;;;;;;;;5115964;28;20051;-80
2023/05/06 10:49:09;;;;;;;5.47;4.10;;;;;;;;;;5116077;28;20108;-82
2023/05/06 10:51:38;;;;;;;6.38;3.97;;;;;;;;;;5134762;28;20027;-81
2023/05/06 10:54:08;;;;;;;8.13;5.00;;;;;;;;;;5116320;28;20057;-80
2023/05/06 10:56:34;;;;;;;8.88;4.50;;;;;;;;;;5082890;28;20035;-79
2023/05/06 10:59:09;;;;;;;8.23;4.03;;;;;;;;;;5134447;28;20088;-80
2023/05/06 11:01:36;;;;;;;8.88;4.88;;;;;;;;;;5099292;28;20027;-79
2023/05/06 11:04:05;;;;;;;9.55;4.05;;;;;;;;;;5098927;28;20047;-80
2023/05/06 11:06:34;;;;;;;8.30;4.05;;;;;;;;;;5115995;28;20031;-80
2023/05/06 11:09:00;;;;;;;9.65;4.20;;;;;;;;;;5116332;28;20126;-79
2023/05/06 11:11:45;;;;;;;8.30;4.10;;;;;;;;;;5134683;28;20027;-79
2023/05/06 11:14:15;;;;;;;6.32;3.22;;;;;;;;;;5115758;28;20577;-82
2023/05/06 11:16:48;;;;;;;8.90;3.85;;;;;;;;;;5115993;28;20027;-81
2023/05/06 11:19:22;;;;;;;5.47;3.70;;;;;;;;;;5115899;28;20031;-80
2023/05/06 11:21:48;;;;;;;11.82;3.70;;;;;;;;;;5116264;28;20419;-80
2023/05/06 11:24:14;;;;;;;9.57;3.70;;;;;;;;;;5098713;28;20477;-81
2023/05/06 11:26:40;;;;;;;7.90;3.30;;;;;;;;;;5115464;28;20027;-83
2023/05/06 11:29:06;;;;;;;5.07;3.20;;;;;;;;;;5101251;27;20031;-83
2023/05/06 11:31:38;;;;;;;9.07;3.42;;;;;;;;;;5119116;27;20415;-82
2023/05/06 11:34:07;;;;;;;6.32;3.00;;;;;;;;;;5137244;27;20038;-82
2023/05/06 11:36:33;;;;;;;9.10;3.10;;;;;;;;;;5119124;27;20019;-82
2023/05/06 11:39:05;;;;;;;9.57;3.10;;;;;;;;;;5118763;27;20450;-82
2023/05/06 11:41:30;;;;;;;7.90;3.13;;;;;;;;;;5101587;27;20019;-81
2023/05/06 11:43:56;;;;;;;4.65;2.80;;;;;;;;;;5119581;27;20030;-81
2023/05/06 11:46:22;;;;;;;5.75;2.50;;;;;;;;;;5137993;27;20567;-81
2023/05/06 11:48:49;;;;;;;4.40;2.85;;;;;;;;;;5119460;27;20085;-84
2023/05/06 11:51:15;;;;;;;6.60;2.60;;;;;;;;;;5119636;27;20059;-84
2023/05/06 11:53:40;;;;;;;4.45;2.03;;;;;;;;;;5119321;27;20023;-83
2023/05/06 11:56:06;;;;;;;3.33;2.20;;;;;;;;;;5119753;27;20152;-82
2023/05/06 11:58:31;;;;;;;4.65;2.00;;;;;;;;;;5138164;27;20027;-81
2023/05/06 12:01:01;;;;;;;8.10;2.35;;;;;;;;;;5102283;27;20517;-84
2023/05/06 12:03:28;;;;;;;3.88;2.28;;;;;;;;;;5119027;27;20027;-81
2023/05/06 12:05:54;;;;;;;4.43;1.80;;;;;;;;;;5137870;27;20062;-82
2023/05/06 12:08:26;;;;;;;3.47;1.83;;;;;;;;;;5102155;27;20119;-81
2023/05/06 12:10:53;;;;;;;4.45;1.90;;;;;;;;;;5119252;27;20057;-81
2023/05/06 12:13:19;;;;;;;2.17;1.45;;;;;;;;;;5132051;27;20025;-81
2023/05/06 12:15:46;;;;;;;4.55;2.00;;;;;;;;;;5139822;27;20054;-81
2023/05/06 12:18:11;;;;;;;4.50;1.92;;;;;;;;;;5122345;27;20027;-80
2023/05/06 12:20:37;;;;;;;4.70;2.05;;;;;;;;;;5139677;27;20064;-81
2023/05/06 12:23:13;;;;;;;4.90;1.70;;;;;;;;;;5139688;27;20425;-81
2023/05/06 12:25:39;;;;;;;3.15;1.70;;;;;;;;;;5122018;27;20042;-81
2023/05/06 12:28:19;;;;;;;2.53;1.75;;;;;;;;;;5157977;27;20080;-81
2023/05/06 12:30:45;;;;;;;3.33;1.83;;;;;;;;;;5139611;27;20030;-81
2023/05/06 12:33:11;;;;;;;3.72;2.13;;;;;;;;;;5139044;27;20048;-82
2023/05/06 12:35:37;;;;;;;3.08;1.83;;;;;;;;;;5139383;27;20022;-81
2023/05/06 12:38:15;;;;;;;2.13;1.63;;;;;;;;;;5138784;27;20109;-82
2023/05/06 12:40:42;;;;;;;2.35;1.50;;;;;;;;;;5138935;27;20026;-81
2023/05/06 12:43:08;;;;;;;3.28;1.83;;;;;;;;;;5121728;27;20457;-81
2023/05/06 12:45:34;;;;;;;4.90;1.75;;;;;;;;;;5139121;27;20113;-80
2023/05/06 12:48:01;;;;;;;2.92;1.70;;;;;;;;;;5139155;27;20046;-80
2023/05/06 12:50:31;;;;;;;2.60;1.70;;;;;;;;;;5138929;27;20027;-81
2023/05/06 12:52:56;;;;;;;2.15;1.50;;;;;;;;;;5157110;27;20370;-81
2023/05/06 12:55:24;;;;;;;2.70;1.70;;;;;;;;;;5121480;27;20026;-80
2023/05/06 12:57:51;;;;;;;2.97;1.80;;;;;;;;;;5139135;27;20027;-81
2023/05/06 13:00:17;;;;;;;4.00;2.00;;;;;;;;;;5138571;27;20019;-80
2023/05/06 13:02:42;;;;;;;2.33;1.73;;;;;;;;;;5138427;27;20026;-81
2023/05/06 13:05:08;;;;;;;5.65;1.90;;;;;;;;;;5156932;27;20454;-80
2023/05/06 13:07:33;;;;;;;6.72;2.20;;;;;;;;;;5138608;27;20031;-80
2023/05/06 13:09:59;;;;;;;3.03;2.00;;;;;;;;;;5157194;27;20461;-80
2023/05/06 13:12:24;;;;;;;2.05;1.85;;;;;;;;;;5121295;27;20043;-80
2023/05/06 13:14:50;;;;;;;3.05;2.30;;;;;;;;;;5120932;27;20532;-80
2023/05/06 13:17:15;;;;;;;2.22;1.70;;;;;;;;;;5104003;27;20104;-80
2023/05/06 13:19:41;;;;;;;2.28;1.63;;;;;;;;;;5138509;27;20080;-80
2023/05/06 13:22:06;;;;;;;4.07;1.90;;;;;;;;;;5138131;27;20442;-80
2023/05/06 13:24:32;;;;;;;3.17;2.00;;;;;;;;;;5138108;27;20118;-80
2023/05/06 13:26:59;;;;;;;2.65;2.45;;;;;;;;;;5138901;27;20055;-81
2023/05/06 13:29:25;;;;;;;2.90;1.70;;;;;;;;;;5156823;27;20101;-80
2023/05/06 13:31:51;;;;;;;2.80;1.75;;;;;;;;;;5104069;27;20061;-79
2023/05/06 13:34:16;;;;;;;2.75;1.80;;;;;;;;;;5122093;27;20030;-79
2023/05/06 13:36:42;;;;;;;1.88;1.60;;;;;;;;;;5157807;27;20442;-79
2023/05/06 13:39:08;;;;;;;1.80;1.48;;;;;;;;;;5121863;27;20033;-78
2023/05/06 13:41:33;;;;;;;4.32;2.03;;;;;;;;;;5122138;27;20052;-78
2023/05/06 13:43:59;;;;;;;7.35;2.08;;;;;;;;;;5157661;27;20076;-79
2023/05/06 13:46:28;;;;;;;2.72;1.80;;;;;;;;;;5138421;27;20035;-79
2023/05/06 13:48:53;;;;;;;3.13;1.88;;;;;;;;;;5139364;27;20031;-79
2023/05/06 13:51:19;;;;;;;5.25;2.00;;;;;;;;;;5103074;27;20439;-80
2023/05/06 13:53:45;;;;;;;2.03;1.50;;;;;;;;;;5120957;27;20033;-82
2023/05/06 13:56:10;;;;;;;5.20;1.70;;;;;;;;;;5137642;27;20034;-80
2023/05/06 13:58:35;;;;;;;4.68;1.63;;;;;;;;;;5120789;27;20035;-80
2023/05/06 14:01:02;;;;;;;3.78;1.63;;;;;;;;;;5137646;27;20026;-79
2023/05/06 14:03:28;;;;;;;2.83;1.73;;;;;;;;;;5120046;27;20074;-81
2023/05/06 14:05:53;;;;;;;5.10;1.90;;;;;;;;;;5137384;27;20113;-80
2023/05/06 14:08:19;;;;;;;3.63;2.05;;;;;;;;;;5132873;27;20537;-80
2023/05/06 14:10:44;;;;;;;1.80;1.52;;;;;;;;;;5116377;27;20112;-79
2023/05/06 14:13:10;;;;;;;3.67;1.90;;;;;;;;;;5134571;27;20386;-79
2023/05/06 14:15:36;;;;;;;2.70;1.70;;;;;;;;;;5100806;27;20038;-79
2023/05/06 14:18:02;;;;;;;4.68;1.75;;;;;;;;;;5135448;27;20138;-79
2023/05/06 14:20:28;;;;;;;3.95;1.55;;;;;;;;;;5136422;27;20035;-78
2023/05/06 14:22:53;;;;;;;8.90;1.60;;;;;;;;;;5101920;27;20114;-85
2023/05/06 14:25:25;;;;;;;4.45;1.70;;;;;;;;;;5103382;27;20393;-80
2023/05/06 14:27:51;;;;;;;4.00;2.03;;;;;;;;;;5120506;27;20088;-82
2023/05/06 14:30:17;;;;;;;1.90;1.40;;;;;;;;;;5103351;27;20034;-84
2023/05/06 14:32:42;;;;;;;2.08;1.45;;;;;;;;;;5109197;27;20055;-83
2023/05/06 14:35:09;;;;;;;2.92;1.58;;;;;;;;;;5122907;27;20039;-84
2023/05/06 14:37:34;;;;;;;3.55;1.48;;;;;;;;;;5128120;27;20019;-82